Simmonstown, Pennsylvania
Current Conditions -  °F | °C
As of 9:35 AM on Friday 28 Nov 2014 (Local Time) from KMQS Reporting Station
Clear Clear  
Wind Chill: 25°   Ceiling: Unl
Heat Index: 32°   Visibility: 10mi
Dew Point: 23°   Wind: 8mph
Humidity: 69%   Direction: 300°WNW
Pressure: 30.24"   Gusts: NA
Location:  40.0073°N, 75.9953°W
Report Text: KMQS 281435Z AUTO 30007KT 10SM CLR 00/M05 A3024 RMK AO2
Loading
Personal Weather Stations






























Interactive Weather Map New forecast layout! Learn more

10-Day Weather Forecast

Advertisements
Track Severe Weather on mobile